Pronóstico
Mapa Interactivo
Aviación
Climatología
Hidrometeorología
Agrometeorología
Estaciones Automáticas
Transparencia
OMM WMO
Portada
Institución
Noticias
Imágenes
Tsunami
Historial
Boletines y Alertas
Contactos
Buscar Contenidos
Informe del Tiempo

SADR31 MDSD 231200Z
METAR
METAR MDPP 231200Z 00000KT 9999 FEW020CB FEW020 28/24 Q1016 CB/NE
TCU/SE=
METAR MDST 231200Z 11006KT 9999 SCT016 SCT070 24/24 Q1016=
METAR MDPC 231200Z 10009KT 8000 VCSH FEW016CB BKN017 27/23 Q1017
CB/E/SE=
METAR MDBH 231200Z 13008KT 8000 -TSRA FEW016CB BKN018 BKN060 28/25
Q1017 CB/SE/S=
METAR MDJB 231200Z 00000KT 9999 FEW016CB SCT018 SCT070 25/24 Q1017
NOSIG=
METAR MDSD 231200Z 05006KT 9999 FEW016CB SCT018 BKN080 25/23 Q1016
CB/S/SW=
METAR MDLR 231200Z 00000KT 9999 FEW018CB SCT018 BKN300 25/23 Q1017
CB/NE/N=
METAR MDCY 231200Z 00000KT 9999 SCT016 SCT070 25/24 Q1017=
METAR MDAB 231200Z 00000KT 9999 SCT016 BKN070 24/24 Q1017=